Data for 09/18/2008

Time Sea-Level Adjusted Pressure Absolute Pressure Temperature Relative Humidity Dew Point   
(mb) (inHg) (mb) (inHg) (C) (F) (%) (C) (F)
00:05 1020 30.12 849 25.07 14.1 57.4 36 -0.7 30.8
00:10 1020 30.12 849 25.07 13.7 56.6 37 -0.7 30.7
00:15 1020 30.12 849 25.07 13.3 56 37 -1 30.2
00:20 1020 30.12 849 25.07 13.3 55.9 38 -0.7 30.8
00:25 1020 30.12 849 25.07 13.2 55.7 39 -0.5 31.2
00:30 1020 30.12 849 25.07 13 55.5 40 -0.4 31.4
00:35 1020 30.12 850 25.1 13 55.4 39 -0.5 31.2
00:40 1020 30.12 849 25.07 13.1 55.5 37 -1.2 29.8
00:45 1020 30.12 849 25.07 13.2 55.7 38 -0.6 30.9
00:50 1020 30.12 849 25.07 13.1 55.6 38 -0.8 30.5
00:55 1020 30.12 850 25.1 13.4 56.1 38 -0.6 30.9
01:00 1020 30.12 850 25.1 13.5 56.2 38 -0.6 30.9
01:05 1020 30.12 850 25.1 13.2 55.8 39 -0.4 31.2
01:10 1020 30.12 850 25.1 13.1 55.6 39 -0.4 31.2
01:15 1020 30.12 850 25.1 12.8 55.1 40 -0.2 31.6
01:20 1020 30.12 850 25.1 12.6 54.6 41 -0.3 31.4
01:25 1020 30.12 850 25.1 12.6 54.7 40 -0.6 30.9
01:30 1020 30.12 850 25.1 12.7 54.9 40 -0.4 31.3
01:35 1020 30.12 850 25.1 12.8 55 40 -0.3 31.4
01:40 1021 30.15 850 25.1 12.4 54.2 41 -0.4 31.2
01:45 1021 30.15 850 25.1 12.6 54.8 40 -0.6 31
01:50 1020 30.12 850 25.1 12.9 55.2 40 -0.3 31.5
01:55 1020 30.12 850 25.1 12.8 55 41 -0.2 31.7
02:00 1020 30.12 850 25.1 12.7 54.8 41 -0.1 31.9
02:05 1020 30.12 850 25.1 12.6 54.7 40 -0.5 31.2
02:10 1021 30.15 850 25.1 12.7 54.9 40 -0.6 30.9
02:15 1021 30.15 850 25.1 13 55.4 39 -0.5 31
02:20 1021 30.15 850 25.1 13 55.3 40 -0.4 31.3
02:25 1020 30.12 850 25.1 12.6 54.6 40 -0.5 31.1
02:30 1020 30.12 850 25.1 12.5 54.5 42 -0.1 31.8
02:35 1020 30.12 850 25.1 12.5 54.4 41 -0.3 31.5
02:40 1020 30.12 850 25.1 12.4 54.2 41 -0.4 31.3
02:45 1020 30.12 850 25.1 12.3 54.2 42 -0.3 31.5
02:50 1020 30.12 850 25.1 12.1 53.7 44 0.1 32.2
02:55 1020 30.12 850 25.1 11.4 52.5 45 0 32.1
03:00 1020 30.12 850 25.1 11.8 53.2 39 -1.6 29.1
03:05 1020 30.12 850 25.1 12.6 54.6 39 -0.9 30.4
03:10 1020 30.12 850 25.1 12.7 54.8 39 -0.7 30.7
03:15 1020 30.12 850 25.1 12.5 54.5 40 -0.7 30.8
03:20 1021 30.15 850 25.1 12.3 54.1 40 -1 30.3
03:25 1021 30.15 850 25.1 12.5 54.4 39 -0.9 30.4
03:30 1021 30.15 850 25.1 12.4 54.3 40 -0.9 30.3
03:35 1021 30.15 850 25.1 12.2 54 41 -0.7 30.7
03:40 1021 30.15 850 25.1 12 53.5 41 -0.9 30.4
03:45 1021 30.15 850 25.1 11.9 53.4 41 -0.9 30.4
03:50 1021 30.15 850 25.1 11.8 53.3 42 -0.8 30.6
03:55 1021 30.15 850 25.1 11.7 53 42 -0.9 30.4
04:00 1021 30.15 850 25.1 11.7 53 42 -0.9 30.4
04:05 1021 30.15 850 25.1 11.7 53.1 40 -1.2 29.8
04:10 1021 30.15 850 25.1 12.1 53.8 39 -1.5 29.3
04:15 1021 30.15 850 25.1 12.2 53.9 39 -1.3 29.7
04:20 1021 30.15 850 25.1 12.2 53.9 38 -1.7 29
04:25 1021 30.15 850 25.1 12.6 54.6 36 -1.9 28.6
04:30 1021 30.15 850 25.1 12.4 54.4 39 -1 30.1
04:35 1021 30.15 850 25.1 12 53.7 41 -0.8 30.6
04:40 1021 30.15 850 25.1 11.6 52.9 42 -0.7 30.8
04:45 1021 30.15 850 25.1 11.7 53 39 -1.7 29
04:50 1021 30.15 850 25.1 12.3 54.2 38 -1.4 29.5
04:55 1021 30.15 850 25.1 12.2 53.9 40 -1 30.2
05:00 1021 30.15 850 25.1 12.1 53.8 39 -1.4 29.5
05:05 1021 30.15 850 25.1 12.3 54.1 38 -1.5 29.3
05:10 1021 30.15 850 25.1 12.3 54.2 39 -1.3 29.7
05:15 1021 30.15 850 25.1 12.3 54.1 38 -1.4 29.5
05:20 1021 30.15 850 25.1 12.4 54.2 38 -1.4 29.4
05:25 1021 30.15 850 25.1 12.6 54.7 36 -1.8 28.7
05:30 1021 30.15 850 25.1 12.9 55.1 36 -1.7 28.9
05:35 1021 30.15 850 25.1 12.7 54.9 37 -1.4 29.4
05:40 1021 30.15 850 25.1 12.6 54.6 39 -1 30.2
05:45 1021 30.15 850 25.1 12.2 54 40 -0.9 30.4
05:50 1021 30.15 850 25.1 12.2 54 41 -0.8 30.6
05:55 1021 30.15 850 25.1 12.1 53.7 38 -1.6 29.1
06:00 1021 30.15 850 25.1 12.1 53.8 41 -0.8 30.6
06:05 1021 30.15 850 25.1 11 51.9 47 0.3 32.5
06:10 1021 30.15 850 25.1 10.3 50.6 46 -0.8 30.5
06:15 1021 30.15 850 25.1 10.1 50.3 47 -0.7 30.7
06:20 1021 30.15 850 25.1 10.5 50.9 42 -1.8 28.8
06:25 1021 30.15 850 25.1 11 51.8 44 -0.6 31
06:30 1021 30.15 850 25.1 10.6 51.1 45 -0.7 30.8
06:35 1021 30.15 850 25.1 10.5 51 44 -1 30.2
06:40 1021 30.15 850 25.1 10.9 51.6 45 -0.4 31.2
06:45 1021 30.15 850 25.1 10.7 51.3 41 -1.9 28.5
06:50 1021 30.15 850 25.1 11.6 52.8 40 -1.5 29.3
06:55 1021 30.15 850 25.1 11.6 52.8 39 -1.7 28.9
07:00 1021 30.15 850 25.1 11.4 52.5 40 -1.5 29.2
07:05 1021 30.15 850 25.1 11 51.8 42 -1.2 29.8
07:10 1021 30.15 850 25.1 10.5 50.9 44 -1.1 30.1
07:15 1021 30.15 850 25.1 10.2 50.4 45 -1.1 30
07:20 1021 30.15 851 25.13 10.5 50.8 44 -1.4 29.5
07:25 1021 30.15 851 25.13 10.6 51 44 -1.2 29.8
07:30 1021 30.15 851 25.13 10.4 50.7 44 -1.4 29.4
07:35 1021 30.15 851 25.13 10.6 51 43 -1.3 29.6
07:40 1021 30.15 851 25.13 10.5 50.9 44 -1.2 29.8
07:45 1021 30.15 851 25.13 10.4 50.7 44 -1.2 29.9
07:50 1022 30.18 851 25.13 10.6 51.1 43 -1.3 29.6
07:55 1022 30.18 851 25.13 11 51.8 42 -1.4 29.5
08:00 1022 30.18 851 25.13 11.6 52.8 38 -2.3 27.9
08:05 1022 30.18 851 25.13 12.4 54.2 37 -2 28.4
08:10 1022 30.18 851 25.13 12.7 54.9 36 -1.8 28.8
08:15 1022 30.18 851 25.13 12.7 54.9 38 -1 30.1
08:20 1022 30.18 851 25.13 12.7 54.8 39 -0.9 30.4
08:25 1022 30.18 851 25.13 12.7 54.8 39 -1 30.2
08:30 1022 30.18 851 25.13 12.7 54.8 38 -1.2 29.9
08:35 1022 30.18 851 25.13 12.9 55.2 39 -0.8 30.6
08:40 1022 30.18 851 25.13 13.2 55.7 38 -0.8 30.5
08:45 1022 30.18 851 25.13 13.2 55.8 40 -0.2 31.7
08:50 1022 30.18 851 25.13 13.3 55.9 40 0.1 32.1
08:55 1022 30.18 851 25.13 13.5 56.3 38 -0.5 31.1
09:00 1022 30.18 851 25.13 14 57.1 38 -0.2 31.6
09:05 1022 30.18 851 25.13 14.5 58.1 37 0.2 32.3
09:10 1022 30.18 851 25.13 15.1 59.1 35 -0.2 31.7
09:15 1022 30.18 851 25.13 15.4 59.8 36 0.6 33
09:20 1022 30.18 851 25.13 15.6 60.1 36 0.8 33.5
09:25 1022 30.18 851 25.13 14.8 58.6 38 0.7 33.3
09:30 1022 30.18 851 25.13 14.3 57.8 40 0.9 33.6
09:35 1022 30.18 851 25.13 15 58.9 36 0.1 32.2
09:40 1022 30.18 851 25.13 16.4 61.5 32 -0.3 31.4
09:45 1022 30.18 852 25.16 16.7 62.1 33 0.3 32.6
09:50 1022 30.18 852 25.16 16.4 61.4 32 -0.1 31.9
09:55 1022 30.18 852 25.16 15.3 59.5 33 -0.9 30.3
10:00 1022 30.18 852 25.16 15.1 59.1 34 -0.7 30.8
10:05 1022 30.18 852 25.16 15.2 59.3 33 -1 30.3
10:10 1022 30.18 852 25.16 16.3 61.3 32 -0.2 31.6
10:15 1022 30.18 852 25.16 16.4 61.4 32 -0.3 31.5
10:20 1022 30.18 852 25.16 16.6 61.8 34 0.6 33
10:25 1022 30.18 852 25.16 16.7 62.1 32 0.2 32.4
10:30 1022 30.18 852 25.16 17.7 63.9 32 0.7 33.3
10:35 1022 30.18 852 25.16 17.9 64.1 29 -0.4 31.3
10:40 1022 30.18 852 25.16 17.3 63.1 31 0.1 32.1
10:45 1022 30.18 852 25.16 16.6 61.9 31 -0.7 30.8
10:50 1022 30.18 852 25.16 17 62.6 32 0.5 32.9
10:55 1022 30.18 852 25.16 17.3 63.1 31 0.3 32.6
11:00 1022 30.18 852 25.16 17.8 64.1 30 0 32
11:05 1022 30.18 851 25.13 18.5 65.2 29 0.4 32.8
11:10 1022 30.18 851 25.13 18.6 65.4 29 0.4 32.7
11:15 1022 30.18 851 25.13 19.2 66.6 27 0.1 32.2
11:20 1022 30.18 851 25.13 20.5 68.9 22 -1.5 29.3
11:25 1022 30.18 851 25.13 20.4 68.7 25 0.1 32.1
11:30 1022 30.18 851 25.13 20 67.9 24 -1 30.2
11:35 1022 30.18 851 25.13 20.7 69.2 25 -0.1 31.8
11:40 1022 30.18 851 25.13 21.2 70.1 25 0.4 32.8
11:45 1022 30.18 851 25.13 21.8 71.2 20 -1.7 29
11:50 1022 30.18 851 25.13 21.6 70.9 21 -1.3 29.7
11:55 1022 30.18 851 25.13 21.2 70.2 23 -0.8 30.6
12:00 1022 30.18 851 25.13 21.7 71 23 -0.5 31.1
12:05 1022 30.18 851 25.13 21.4 70.4 23 -0.4 31.3
12:10 1022 30.18 851 25.13 21.3 70.3 22 -0.9 30.3
12:15 1022 30.18 851 25.13 21.9 71.5 21 -1.3 29.7
12:20 1022 30.18 851 25.13 22.5 72.4 20 -1.4 29.5
12:25 1022 30.18 851 25.13 22.5 72.5 20 -1 30.1
12:30 1022 30.18 851 25.13 22.7 72.8 20 -1 30.1
12:35 1022 30.18 851 25.13 22.5 72.4 22 -0 32
12:40 1022 30.18 851 25.13 22.1 71.8 22 -0.5 31.1
12:45 1022 30.18 851 25.13 21.9 71.3 23 -0 32
12:50 1022 30.18 851 25.13 22.4 72.4 22 -0.1 31.7
12:55 1022 30.18 851 25.13 23.4 74.2 21 -0 32
13:00 1022 30.18 851 25.13 23.8 74.9 20 -0.3 31.5
13:05 1021 30.15 851 25.13 23.9 75 20 -0 32
13:10 1021 30.15 851 25.13 24.6 76.2 18 -0.8 30.6
13:15 1021 30.15 851 25.13 24.4 76 20 0.3 32.5
13:20 1021 30.15 851 25.13 24.2 75.6 20 0 32
13:25 1021 30.15 851 25.13 24.7 76.4 20 0.1 32.2
13:30 1021 30.15 851 25.13 23.5 74.3 20 -0.4 31.3
13:35 1021 30.15 850 25.1 24.2 75.6 20 0.3 32.5
13:40 1021 30.15 850 25.1 24.2 75.6 20 0.2 32.3
13:45 1021 30.15 850 25.1 23.6 74.6 20 -0.4 31.3
13:50 1021 30.15 850 25.1 23.5 74.3 19 -1.6 29.2
13:55 1021 30.15 850 25.1 23.6 74.4 19 -1 30.1
14:00 1021 30.15 850 25.1 24.6 76.2 18 -1.2 29.9
14:05 1021 30.15 850 25.1 24.5 76 19 -0.7 30.7
14:10 1021 30.15 850 25.1 25.2 77.3 18 -0.9 30.4
14:15 1021 30.15 850 25.1 26.1 78.9 15 -2 28.4
14:20 1021 30.15 850 25.1 26.1 78.9 16 -1.1 29.9
14:25 1021 30.15 850 25.1 24.6 76.3 19 -0.2 31.6
14:30 1021 30.15 850 25.1 24.7 76.5 19 -0.3 31.4
14:35 1021 30.15 850 25.1 24.3 75.7 19 -0.4 31.3
14:40 1021 30.15 850 25.1 24.9 76.9 18 -1 30.2
14:45 1021 30.15 850 25.1 25.9 78.5 17 -0.7 30.8
14:50 1021 30.15 850 25.1 25.4 77.8 18 -0.5 31.1
14:55 1020 30.12 850 25.1 25.8 78.5 16 -1.8 28.8
15:00 1020 30.12 850 25.1 25.4 77.7 18 -0.7 30.8
15:05 1020 30.12 850 25.1 25.8 78.4 16 -1.7 29
15:10 1020 30.12 850 25.1 26 78.8 15 -2.4 27.7
15:15 1020 30.12 850 25.1 26 78.8 15 -2.1 28.2
15:20 1020 30.12 849 25.07 26.4 79.5 15 -2.3 27.9
15:25 1020 30.12 849 25.07 26.4 79.5 15 -2.2 28
15:30 1020 30.12 849 25.07 26.8 80.2 13 -3.2 26.3
15:35 1020 30.12 849 25.07 26.8 80.3 13 -3.8 25.2
15:40 1020 30.12 849 25.07 27.1 80.8 13 -3.5 25.6
15:45 1020 30.12 849 25.07 26.6 79.9 14 -2.9 26.8
15:50 1020 30.12 849 25.07 26.8 80.3 14 -2.9 26.8
15:55 1020 30.12 849 25.07 26.8 80.2 14 -2.9 26.8
16:00 1020 30.12 849 25.07 27.2 81 13 -2.9 26.8
16:05 1020 30.12 849 25.07 27.5 81.5 13 -3.3 26.1
16:10 1020 30.12 849 25.07 27.5 81.5 13 -2.6 27.3
16:15 1020 30.12 849 25.07 27.1 80.8 13 -3 26.7
16:20 1020 30.12 849 25.07 27.2 81 12 -4.3 24.3
16:25 1020 30.12 849 25.07 27.2 80.9 13 -3.6 25.6
16:30 1020 30.12 849 25.07 27.1 80.8 12 -4.4 24.1
16:35 1020 30.12 849 25.07 27.1 80.8 13 -3.6 25.6
16:40 1020 30.12 849 25.07 27.4 81.3 12 -4.2 24.5
16:45 1020 30.12 849 25.07 27.6 81.7 12 -3.6 25.5
16:50 1020 30.12 849 25.07 28 82.3 12 -3.7 25.4
16:55 1020 30.12 849 25.07 28 82.5 12 -3.8 25.2
17:00 1020 30.12 849 25.07 27.9 82.2 11 -5.2 22.7
17:05 1020 30.12 849 25.07 27.6 81.6 12 -4.1 24.7
17:10 1020 30.12 849 25.07 27.9 82.2 11 -5.2 22.7
17:15 1020 30.12 849 25.07 28.1 82.5 11 -4.6 23.8
17:20 1020 30.12 849 25.07 27.8 82 11 -5.3 22.5
17:25 1020 30.12 849 25.07 27.4 81.3 11 -5.1 22.8
17:30 1020 30.12 849 25.07 26.9 80.3 12 -5 23.1
17:35 1020 30.12 849 25.07 27.2 81 12 -4.3 24.2
17:40 1020 30.12 849 25.07 27.2 80.9 13 -3.2 26.3
17:45 1020 30.12 849 25.07 27.3 81.1 12 -4.5 23.9
17:50 1020 30.12 849 25.07 26.9 80.5 12 -4.3 24.2
17:55 1020 30.12 849 25.07 26.9 80.4 13 -3.8 25.1
18:00 1020 30.12 849 25.07 26.7 80.1 13 -3.8 25.2
18:05 1020 30.12 849 25.07 26.5 79.8 12 -5.3 22.5
18:10 1020 30.12 849 25.07 26.8 80.2 12 -4.3 24.3
18:15 1020 30.12 849 25.07 26.9 80.5 13 -3.9 24.9
18:20 1020 30.12 849 25.07 26.7 80 13 -4.1 24.6
18:25 1020 30.12 849 25.07 25.9 78.7 12 -5.2 22.6
18:30 1020 30.12 849 25.07 25.2 77.4 13 -4.5 23.9
18:35 1020 30.12 849 25.07 25 77 13 -4.7 23.6
18:40 1020 30.12 849 25.07 24.8 76.7 14 -4.2 24.4
18:45 1020 30.12 849 25.07 24.6 76.3 16 -2.9 26.7
18:50 1020 30.12 849 25.07 24.3 75.7 21 0.5 32.8
18:55 1019 30.09 849 25.07 23.8 74.8 17 -2.2 28
19:00 1020 30.12 849 25.07 23.5 74.3 26 3 37.4
19:05 1020 30.12 849 25.07 23 73.4 29 4.4 39.9
19:10 1020 30.12 849 25.07 21.9 71.5 30 3.8 38.8
19:15 1020 30.12 849 25.07 21.1 70.1 29 2.5 36.6
19:20 1020 30.12 849 25.07 21.1 70 27 1.7 35
19:25 1020 30.12 849 25.07 21 69.7 29 2.6 36.7
19:30 1020 30.12 849 25.07 20 68.1 30 2.1 35.8
19:35 1020 30.12 849 25.07 19.3 66.7 30 1.5 34.7
19:40 1020 30.12 849 25.07 18.9 66 29 0.5 33
19:45 1020 30.12 849 25.07 18.5 65.4 32 1.6 34.9
19:50 1020 30.12 849 25.07 17.9 64.3 31 0.9 33.6
19:55 1020 30.12 849 25.07 17.7 63.8 31 0.3 32.5
20:00 1020 30.12 849 25.07 17.5 63.4 31 0.2 32.3
20:05 1020 30.12 849 25.07 17 62.6 33 0.7 33.3
20:10 1020 30.12 849 25.07 16.3 61.3 33 -0.1 31.9
20:15 1020 30.12 849 25.07 15.9 60.6 37 1.4 34.5
20:20 1020 30.12 849 25.07 15.7 60.2 31 -1.3 29.6
20:25 1020 30.12 849 25.07 16.3 61.3 27 -2.8 27
20:30 1020 30.12 849 25.07 16.9 62.4 25 -3.2 26.2
20:35 1020 30.12 849 25.07 16.9 62.4 24 -3.4 25.8
20:40 1020 30.12 849 25.07 16.6 61.8 24 -4.2 24.4
20:45 1020 30.12 849 25.07 17 62.6 22 -4.9 23.1
20:50 1020 30.12 849 25.07 17.1 62.8 22 -4.4 24
20:55 1020 30.12 849 25.07 17 62.6 24 -3.8 25.1
21:00 1020 30.12 849 25.07 17.2 62.9 22 -4.6 23.7
21:05 1020 30.12 849 25.07 17.3 63.1 21 -5.5 22.1
21:10 1020 30.12 849 25.07 17.2 63 20 -5.6 21.9
21:15 1020 30.12 849 25.07 17.5 63.5 21 -5 22.9
21:20 1020 30.12 849 25.07 17.4 63.3 22 -4.3 24.3
21:25 1020 30.12 849 25.07 16.9 62.5 23 -4 24.7
21:30 1020 30.12 849 25.07 16.6 61.8 22 -5.3 22.5
21:35 1020 30.12 849 25.07 16.8 62.2 22 -4.8 23.3
21:40 1020 30.12 849 25.07 17.1 62.7 21 -5 22.9
21:45 1020 30.12 849 25.07 16.7 62.1 24 -3.9 25
21:50 1020 30.12 849 25.07 16.5 61.7 25 -3.7 25.3
21:55 1020 30.12 849 25.07 16.1 61 29 -2 28.5
22:00 1020 30.12 849 25.07 15.9 60.5 27 -2.9 26.8
22:05 1020 30.12 850 25.1 15.7 60.2 31 -1.5 29.3
22:10 1020 30.12 850 25.1 15.4 59.6 24 -5.2 22.6
22:15 1020 30.12 850 25.1 16.1 60.9 26 -3.4 26
22:20 1020 30.12 850 25.1 16.1 60.9 27 -3 26.6
22:25 1020 30.12 850 25.1 15.8 60.4 25 -4.2 24.5
22:30 1020 30.12 850 25.1 16 60.7 27 -3 26.7
22:35 1020 30.12 850 25.1 15.1 59.2 30 -2 28.4
22:40 1020 30.12 850 25.1 14.2 57.6 31 -2.7 27.1
22:45 1020 30.12 850 25.1 14.8 58.6 27 -4 24.8
22:50 1020 30.12 850 25.1 15.7 60.2 25 -4.1 24.6
22:55 1020 30.12 850 25.1 15.5 59.9 27 -3.4 25.9
23:00 1020 30.12 850 25.1 15.3 59.6 27 -3.3 26.1
23:05 1020 30.12 850 25.1 14.8 58.6 29 -2.9 26.8
23:10 1021 30.15 850 25.1 14.4 57.9 29 -3.2 26.2
23:15 1021 30.15 850 25.1 14.5 58.2 28 -3.5 25.6
23:20 1021 30.15 850 25.1 14.7 58.4 27 -4.1 24.7
23:25 1021 30.15 850 25.1 15.3 59.5 26 -4 24.8
23:30 1021 30.15 850 25.1 15.2 59.3 28 -2.9 26.8
23:35 1021 30.15 850 25.1 14.8 58.7 29 -3.2 26.3
23:40 1021 30.15 850 25.1 14.6 58.2 32 -1.9 28.5
23:45 1021 30.15 850 25.1 14.2 57.6 32 -2.3 27.8
23:50 1021 30.15 850 25.1 14.2 57.6 29 -3.3 26.1
23:55 1021 30.15 850 25.1 14.7 58.4 28 -3.6 25.6
24:00 1021 30.15 850 25.1 14.8 58.7 29 -2.8 26.9